sensor_id;sensor_type;location;lat;lon;timestamp;pressure;altitude;pressure_sealevel;temperature;humidity
4767;BME280;2397;53.576;9.746;2024-01-30T00:01:34;102765.38;;;4.92;100.00
4767;BME280;2397;53.576;9.746;2024-01-30T00:04:02;102759.75;;;4.81;100.00
4767;BME280;2397;53.576;9.746;2024-01-30T00:06:28;102755.97;;;4.88;100.00
4767;BME280;2397;53.576;9.746;2024-01-30T00:08:55;102755.66;;;4.75;100.00
4767;BME280;2397;53.576;9.746;2024-01-30T00:11:21;102761.69;;;4.76;100.00
4767;BME280;2397;53.576;9.746;2024-01-30T00:13:48;102760.41;;;4.66;100.00
4767;BME280;2397;53.576;9.746;2024-01-30T00:16:24;102751.72;;;4.65;100.00
4767;BME280;2397;53.576;9.746;2024-01-30T00:18:52;102751.50;;;4.50;100.00
4767;BME280;2397;53.576;9.746;2024-01-30T00:21:19;102749.31;;;4.39;100.00
4767;BME280;2397;53.576;9.746;2024-01-30T00:23:46;102744.59;;;4.27;100.00
4767;BME280;2397;53.576;9.746;2024-01-30T00:26:13;102752.38;;;4.29;100.00
4767;BME280;2397;53.576;9.746;2024-01-30T00:28:41;102753.63;;;4.40;100.00
4767;BME280;2397;53.576;9.746;2024-01-30T00:31:08;102749.25;;;4.41;100.00
4767;BME280;2397;53.576;9.746;2024-01-30T00:33:39;102748.75;;;4.33;100.00
4767;BME280;2397;53.576;9.746;2024-01-30T00:36:07;102748.25;;;4.23;100.00
4767;BME280;2397;53.576;9.746;2024-01-30T00:38:34;102763.94;;;4.23;100.00
4767;BME280;2397;53.576;9.746;2024-01-30T00:41:01;102752.63;;;4.23;100.00
4767;BME280;2397;53.576;9.746;2024-01-30T00:43:31;102754.19;;;4.27;100.00
4767;BME280;2397;53.576;9.746;2024-01-30T00:45:58;102754.13;;;4.28;100.00
4767;BME280;2397;53.576;9.746;2024-01-30T00:48:24;102745.44;;;4.28;100.00
4767;BME280;2397;53.576;9.746;2024-01-30T00:50:51;102745.72;;;4.22;100.00
4767;BME280;2397;53.576;9.746;2024-01-30T00:53:18;102744.72;;;4.24;100.00
4767;BME280;2397;53.576;9.746;2024-01-30T00:55:44;102737.31;;;4.35;100.00
4767;BME280;2397;53.576;9.746;2024-01-30T00:58:11;102735.50;;;4.37;100.00
4767;BME280;2397;53.576;9.746;2024-01-30T01:00:37;102742.13;;;4.44;100.00
4767;BME280;2397;53.576;9.746;2024-01-30T01:03:04;102743.91;;;4.44;100.00
4767;BME280;2397;53.576;9.746;2024-01-30T01:05:31;102741.03;;;4.50;100.00
4767;BME280;2397;53.576;9.746;2024-01-30T01:07:57;102755.88;;;4.49;100.00
4767;BME280;2397;53.576;9.746;2024-01-30T01:10:24;102756.88;;;4.47;100.00
4767;BME280;2397;53.576;9.746;2024-01-30T01:12:50;102754.78;;;4.55;100.00
4767;BME280;2397;53.576;9.746;2024-01-30T01:15:17;102755.75;;;4.52;100.00
4767;BME280;2397;53.576;9.746;2024-01-30T01:17:44;102754.03;;;4.51;100.00
4767;BME280;2397;53.576;9.746;2024-01-30T01:20:10;102751.53;;;4.48;100.00
4767;BME280;2397;53.576;9.746;2024-01-30T01:22:37;102745.38;;;4.51;100.00
4767;BME280;2397;53.576;9.746;2024-01-30T01:25:06;102745.50;;;4.48;100.00
4767;BME280;2397;53.576;9.746;2024-01-30T01:27:34;102749.38;;;4.38;100.00
4767;BME280;2397;53.576;9.746;2024-01-30T01:30:09;102746.88;;;4.35;100.00
4767;BME280;2397;53.576;9.746;2024-01-30T01:32:36;102741.81;;;4.32;100.00
4767;BME280;2397;53.576;9.746;2024-01-30T01:35:03;102746.00;;;4.36;100.00
4767;BME280;2397;53.576;9.746;2024-01-30T01:37:32;102735.50;;;4.37;100.00
4767;BME280;2397;53.576;9.746;2024-01-30T01:39:59;102727.81;;;4.33;100.00
4767;BME280;2397;53.576;9.746;2024-01-30T01:42:26;102738.41;;;4.30;100.00
4767;BME280;2397;53.576;9.746;2024-01-30T01:44:53;102733.88;;;4.33;100.00
4767;BME280;2397;53.576;9.746;2024-01-30T01:47:20;102729.28;;;4.40;100.00
4767;BME280;2397;53.576;9.746;2024-01-30T01:49:47;102721.50;;;4.38;100.00
4767;BME280;2397;53.576;9.746;2024-01-30T01:52:14;102724.16;;;4.37;100.00
4767;BME280;2397;53.576;9.746;2024-01-30T01:54:41;102714.81;;;4.31;100.00
4767;BME280;2397;53.576;9.746;2024-01-30T01:57:07;102710.44;;;4.32;100.00
4767;BME280;2397;53.576;9.746;2024-01-30T01:59:34;102707.91;;;4.30;100.00
4767;BME280;2397;53.576;9.746;2024-01-30T02:02:02;102699.44;;;4.24;100.00
4767;BME280;2397;53.576;9.746;2024-01-30T02:04:30;102699.84;;;4.35;100.00
4767;BME280;2397;53.576;9.746;2024-01-30T02:06:56;102698.16;;;4.34;100.00
4767;BME280;2397;53.576;9.746;2024-01-30T02:09:23;102693.50;;;4.40;100.00
4767;BME280;2397;53.576;9.746;2024-01-30T02:11:50;102695.81;;;4.48;100.00
4767;BME280;2397;53.576;9.746;2024-01-30T02:14:17;102698.56;;;4.45;100.00
4767;BME280;2397;53.576;9.746;2024-01-30T02:16:44;102688.09;;;4.45;100.00
4767;BME280;2397;53.576;9.746;2024-01-30T02:19:10;102687.69;;;4.34;100.00
4767;BME280;2397;53.576;9.746;2024-01-30T02:21:38;102685.47;;;4.25;100.00
4767;BME280;2397;53.576;9.746;2024-01-30T02:24:05;102677.94;;;4.17;100.00
4767;BME280;2397;53.576;9.746;2024-01-30T02:26:32;102685.00;;;4.15;100.00
4767;BME280;2397;53.576;9.746;2024-01-30T02:28:58;102681.53;;;4.15;100.00
4767;BME280;2397;53.576;9.746;2024-01-30T02:31:25;102675.09;;;4.23;100.00
4767;BME280;2397;53.576;9.746;2024-01-30T02:33:52;102676.78;;;4.24;100.00
4767;BME280;2397;53.576;9.746;2024-01-30T02:36:19;102682.81;;;4.26;100.00
4767;BME280;2397;53.576;9.746;2024-01-30T02:38:45;102682.59;;;4.31;100.00
4767;BME280;2397;53.576;9.746;2024-01-30T02:41:12;102674.88;;;4.28;100.00
4767;BME280;2397;53.576;9.746;2024-01-30T02:43:39;102673.88;;;4.32;100.00
4767;BME280;2397;53.576;9.746;2024-01-30T02:46:06;102670.50;;;4.28;100.00
4767;BME280;2397;53.576;9.746;2024-01-30T02:48:33;102671.63;;;4.23;100.00
4767;BME280;2397;53.576;9.746;2024-01-30T02:50:59;102672.66;;;4.19;100.00
4767;BME280;2397;53.576;9.746;2024-01-30T02:53:26;102668.34;;;4.18;100.00
4767;BME280;2397;53.576;9.746;2024-01-30T02:55:52;102664.22;;;4.12;100.00
4767;BME280;2397;53.576;9.746;2024-01-30T02:58:19;102665.44;;;4.04;100.00
4767;BME280;2397;53.576;9.746;2024-01-30T03:00:45;102668.06;;;4.04;100.00
4767;BME280;2397;53.576;9.746;2024-01-30T03:03:12;102668.19;;;4.01;100.00
4767;BME280;2397;53.576;9.746;2024-01-30T03:05:39;102660.41;;;3.99;100.00
4767;BME280;2397;53.576;9.746;2024-01-30T03:08:05;102665.75;;;3.96;100.00
4767;BME280;2397;53.576;9.746;2024-01-30T03:10:32;102667.03;;;4.08;100.00
4767;BME280;2397;53.576;9.746;2024-01-30T03:12:59;102657.50;;;4.07;100.00
4767;BME280;2397;53.576;9.746;2024-01-30T03:15:25;102663.81;;;4.01;100.00
4767;BME280;2397;53.576;9.746;2024-01-30T03:17:53;102657.84;;;3.98;100.00
4767;BME280;2397;53.576;9.746;2024-01-30T03:20:20;102654.81;;;3.87;100.00
4767;BME280;2397;53.576;9.746;2024-01-30T03:22:46;102652.47;;;3.81;100.00
4767;BME280;2397;53.576;9.746;2024-01-30T03:25:13;102650.59;;;3.63;100.00
4767;BME280;2397;53.576;9.746;2024-01-30T03:27:40;102647.19;;;3.60;100.00
4767;BME280;2397;53.576;9.746;2024-01-30T03:30:07;102638.56;;;3.58;100.00
4767;BME280;2397;53.576;9.746;2024-01-30T03:32:34;102640.75;;;3.47;100.00
4767;BME280;2397;53.576;9.746;2024-01-30T03:35:00;102640.50;;;3.53;100.00
4767;BME280;2397;53.576;9.746;2024-01-30T03:37:27;102637.50;;;3.64;100.00
4767;BME280;2397;53.576;9.746;2024-01-30T03:39:54;102631.78;;;3.54;100.00
4767;BME280;2397;53.576;9.746;2024-01-30T03:42:20;102629.94;;;3.56;100.00
4767;BME280;2397;53.576;9.746;2024-01-30T03:44:48;102629.84;;;3.59;100.00
4767;BME280;2397;53.576;9.746;2024-01-30T03:47:18;102626.97;;;3.66;100.00
4767;BME280;2397;53.576;9.746;2024-01-30T03:49:45;102627.53;;;3.74;100.00
4767;BME280;2397;53.576;9.746;2024-01-30T03:52:11;102627.53;;;3.74;100.00
4767;BME280;2397;53.576;9.746;2024-01-30T03:54:38;102625.94;;;3.70;100.00
4767;BME280;2397;53.576;9.746;2024-01-30T03:57:05;102632.97;;;3.67;100.00
4767;BME280;2397;53.576;9.746;2024-01-30T03:59:32;102633.84;;;3.68;100.00
4767;BME280;2397;53.576;9.746;2024-01-30T04:01:59;102634.00;;;3.63;100.00
4767;BME280;2397;53.576;9.746;2024-01-30T04:04:26;102623.75;;;3.59;100.00
4767;BME280;2397;53.576;9.746;2024-01-30T04:06:52;102633.47;;;3.55;100.00
4767;BME280;2397;53.576;9.746;2024-01-30T04:09:19;102631.78;;;3.54;100.00
4767;BME280;2397;53.576;9.746;2024-01-30T04:11:46;102628.69;;;3.67;100.00
4767;BME280;2397;53.576;9.746;2024-01-30T04:14:12;102625.25;;;3.64;100.00
4767;BME280;2397;53.576;9.746;2024-01-30T04:16:39;102620.72;;;3.48;100.00
4767;BME280;2397;53.576;9.746;2024-01-30T04:19:05;102621.56;;;3.48;100.00
4767;BME280;2397;53.576;9.746;2024-01-30T04:21:32;102621.56;;;3.48;100.00
4767;BME280;2397;53.576;9.746;2024-01-30T04:23:58;102628.38;;;3.52;100.00
4767;BME280;2397;53.576;9.746;2024-01-30T04:26:25;102621.34;;;3.54;100.00
4767;BME280;2397;53.576;9.746;2024-01-30T04:28:52;102616.28;;;3.50;100.00
4767;BME280;2397;53.576;9.746;2024-01-30T04:31:18;102621.47;;;3.51;100.00
4767;BME280;2397;53.576;9.746;2024-01-30T04:33:45;102623.94;;;3.54;100.00
4767;BME280;2397;53.576;9.746;2024-01-30T04:36:12;102629.22;;;3.53;100.00
4767;BME280;2397;53.576;9.746;2024-01-30T04:38:38;102630.38;;;3.46;100.00
4767;BME280;2397;53.576;9.746;2024-01-30T04:41:05;102632.72;;;3.52;100.00
4767;BME280;2397;53.576;9.746;2024-01-30T04:43:32;102633.81;;;3.46;100.00
4767;BME280;2397;53.576;9.746;2024-01-30T04:45:58;102644.63;;;3.37;100.00
4767;BME280;2397;53.576;9.746;2024-01-30T04:48:25;102642.22;;;3.54;100.00
4767;BME280;2397;53.576;9.746;2024-01-30T04:50:51;102638.81;;;3.52;100.00
4767;BME280;2397;53.576;9.746;2024-01-30T04:53:18;102634.88;;;3.64;100.00
4767;BME280;2397;53.576;9.746;2024-01-30T04:55:45;102636.63;;;3.63;100.00
4767;BME280;2397;53.576;9.746;2024-01-30T04:58:12;102636.69;;;3.62;100.00
4767;BME280;2397;53.576;9.746;2024-01-30T05:00:38;102631.28;;;3.67;100.00
4767;BME280;2397;53.576;9.746;2024-01-30T05:03:05;102624.00;;;3.75;100.00
4767;BME280;2397;53.576;9.746;2024-01-30T05:05:32;102629.34;;;3.72;100.00
4767;BME280;2397;53.576;9.746;2024-01-30T05:07:58;102626.53;;;3.76;100.00
4767;BME280;2397;53.576;9.746;2024-01-30T05:10:25;102626.22;;;3.84;100.00
4767;BME280;2397;53.576;9.746;2024-01-30T05:12:51;102632.25;;;3.86;100.00
4767;BME280;2397;53.576;9.746;2024-01-30T05:15:19;102628.81;;;3.84;100.00
4767;BME280;2397;53.576;9.746;2024-01-30T05:17:45;102628.19;;;3.79;100.00
4767;BME280;2397;53.576;9.746;2024-01-30T05:20:12;102627.63;;;3.71;100.00
4767;BME280;2397;53.576;9.746;2024-01-30T05:22:39;102625.25;;;3.64;100.00
4767;BME280;2397;53.576;9.746;2024-01-30T05:25:12;102626.34;;;3.59;100.00
4767;BME280;2397;53.576;9.746;2024-01-30T05:27:39;102619.22;;;3.64;100.00
4767;BME280;2397;53.576;9.746;2024-01-30T05:30:06;102622.06;;;3.58;100.00
4767;BME280;2397;53.576;9.746;2024-01-30T05:32:33;102616.84;;;3.58;100.00
4767;BME280;2397;53.576;9.746;2024-01-30T05:35:00;102615.75;;;3.63;100.00
4767;BME280;2397;53.576;9.746;2024-01-30T05:37:27;102616.03;;;3.78;100.00
4767;BME280;2397;53.576;9.746;2024-01-30T05:39:53;102610.06;;;3.74;100.00
4767;BME280;2397;53.576;9.746;2024-01-30T05:42:20;102614.03;;;3.84;100.00
4767;BME280;2397;53.576;9.746;2024-01-30T05:44:46;102613.91;;;3.87;100.00
4767;BME280;2397;53.576;9.746;2024-01-30T05:47:13;102605.13;;;3.88;100.00
4767;BME280;2397;53.576;9.746;2024-01-30T05:49:39;102603.84;;;3.98;100.00
4767;BME280;2397;53.576;9.746;2024-01-30T05:52:06;102603.06;;;3.96;100.00
4767;BME280;2397;53.576;9.746;2024-01-30T05:54:33;102601.81;;;4.05;100.00
4767;BME280;2397;53.576;9.746;2024-01-30T05:57:00;102606.69;;;4.14;100.00
4767;BME280;2397;53.576;9.746;2024-01-30T05:59:26;102596.94;;;4.17;100.00
4767;BME280;2397;53.576;9.746;2024-01-30T06:01:53;102599.44;;;4.20;100.00
4767;BME280;2397;53.576;9.746;2024-01-30T06:04:20;102604.53;;;4.23;100.00
4767;BME280;2397;53.576;9.746;2024-01-30T06:06:47;102600.81;;;4.29;100.00
4767;BME280;2397;53.576;9.746;2024-01-30T06:09:13;102600.53;;;4.35;100.00
4767;BME280;2397;53.576;9.746;2024-01-30T06:11:40;102602.94;;;4.39;100.00
4767;BME280;2397;53.576;9.746;2024-01-30T06:14:07;102595.59;;;4.47;100.00
4767;BME280;2397;53.576;9.746;2024-01-30T06:16:33;102584.31;;;4.47;100.00
4767;BME280;2397;53.576;9.746;2024-01-30T06:19:00;102588.56;;;4.49;100.00
4767;BME280;2397;53.576;9.746;2024-01-30T06:21:27;102590.13;;;4.53;100.00
4767;BME280;2397;53.576;9.746;2024-01-30T06:23:53;102582.47;;;4.49;100.00
4767;BME280;2397;53.576;9.746;2024-01-30T06:26:20;102579.09;;;4.47;100.00
4767;BME280;2397;53.576;9.746;2024-01-30T06:28:46;102577.38;;;4.46;100.00
4767;BME280;2397;53.576;9.746;2024-01-30T06:31:13;102566.03;;;4.47;100.00
4767;BME280;2397;53.576;9.746;2024-01-30T06:33:39;102569.66;;;4.43;100.00
4767;BME280;2397;53.576;9.746;2024-01-30T06:36:08;102568.91;;;4.41;100.00
4767;BME280;2397;53.576;9.746;2024-01-30T06:38:35;102577.38;;;4.46;100.00
4767;BME280;2397;53.576;9.746;2024-01-30T06:41:01;102572.81;;;4.51;100.00
4767;BME280;2397;53.576;9.746;2024-01-30T06:43:28;102567.50;;;4.52;100.00
4767;BME280;2397;53.576;9.746;2024-01-30T06:45:55;102566.72;;;4.50;100.00
4767;BME280;2397;53.576;9.746;2024-01-30T06:48:21;102570.59;;;4.42;100.00
4767;BME280;2397;53.576;9.746;2024-01-30T06:50:48;102564.78;;;4.35;100.00
4767;BME280;2397;53.576;9.746;2024-01-30T06:53:16;102561.59;;;4.29;100.00
4767;BME280;2397;53.576;9.746;2024-01-30T06:55:43;102571.00;;;4.33;100.00
4767;BME280;2397;53.576;9.746;2024-01-30T06:58:10;102567.47;;;4.34;100.00
4767;BME280;2397;53.576;9.746;2024-01-30T07:00:36;102568.31;;;4.34;100.00
4767;BME280;2397;53.576;9.746;2024-01-30T07:03:03;102574.19;;;4.39;100.00
4767;BME280;2397;53.576;9.746;2024-01-30T07:05:32;102582.03;;;4.39;100.00
4767;BME280;2397;53.576;9.746;2024-01-30T07:07:58;102570.94;;;4.34;100.00
4767;BME280;2397;53.576;9.746;2024-01-30T07:10:25;102570.44;;;4.26;100.00
4767;BME280;2397;53.576;9.746;2024-01-30T07:12:51;102576.47;;;4.27;100.00
4767;BME280;2397;53.576;9.746;2024-01-30T07:15:18;102579.16;;;4.25;100.00
4767;BME280;2397;53.576;9.746;2024-01-30T07:17:46;102572.69;;;4.34;100.00
4767;BME280;2397;53.576;9.746;2024-01-30T07:20:13;102573.31;;;4.39;100.00
4767;BME280;2397;53.576;9.746;2024-01-30T07:22:43;102565.72;;;4.34;100.00
4767;BME280;2397;53.576;9.746;2024-01-30T07:25:10;102573.13;;;4.43;100.00
4767;BME280;2397;53.576;9.746;2024-01-30T07:27:37;102579.84;;;4.49;100.00
4767;BME280;2397;53.576;9.746;2024-01-30T07:30:04;102577.13;;;4.52;100.00
4767;BME280;2397;53.576;9.746;2024-01-30T07:32:31;102575.00;;;4.60;100.00
4767;BME280;2397;53.576;9.746;2024-01-30T07:34:58;102578.25;;;4.65;100.00
4767;BME280;2397;53.576;9.746;2024-01-30T07:37:34;102575.56;;;4.66;100.00
4767;BME280;2397;53.576;9.746;2024-01-30T07:40:01;102572.69;;;4.72;100.00
4767;BME280;2397;53.576;9.746;2024-01-30T07:42:29;102569.22;;;4.72;100.00
4767;BME280;2397;53.576;9.746;2024-01-30T07:44:55;102569.28;;;4.70;100.00
4767;BME280;2397;53.576;9.746;2024-01-30T07:47:22;102569.22;;;4.72;100.00
4767;BME280;2397;53.576;9.746;2024-01-30T07:49:48;102570.00;;;4.74;100.00
4767;BME280;2397;53.576;9.746;2024-01-30T07:52:15;102557.41;;;4.82;100.00
4767;BME280;2397;53.576;9.746;2024-01-30T07:54:42;102552.81;;;4.87;100.00
4767;BME280;2397;53.576;9.746;2024-01-30T07:57:09;102549.31;;;4.88;100.00
4767;BME280;2397;53.576;9.746;2024-01-30T07:59:36;102550.84;;;4.92;100.00
4767;BME280;2397;53.576;9.746;2024-01-30T08:02:02;102563.16;;;5.08;100.00
4767;BME280;2397;53.576;9.746;2024-01-30T08:04:29;102557.72;;;5.13;100.00
4767;BME280;2397;53.576;9.746;2024-01-30T08:06:57;102552.97;;;5.21;100.00
4767;BME280;2397;53.576;9.746;2024-01-30T08:09:23;102560.50;;;5.27;100.00
4767;BME280;2397;53.576;9.746;2024-01-30T08:11:50;102558.66;;;5.29;100.00
4767;BME280;2397;53.576;9.746;2024-01-30T08:14:17;102560.22;;;5.33;100.00
4767;BME280;2397;53.576;9.746;2024-01-30T08:16:43;102555.91;;;5.32;100.00
4767;BME280;2397;53.576;9.746;2024-01-30T08:19:10;102552.22;;;5.36;100.00
4767;BME280;2397;53.576;9.746;2024-01-30T08:21:37;102557.38;;;5.37;100.00
4767;BME280;2397;53.576;9.746;2024-01-30T08:24:06;102550.00;;;5.45;100.00
4767;BME280;2397;53.576;9.746;2024-01-30T08:26:33;102547.94;;;5.52;100.00
4767;BME280;2397;53.576;9.746;2024-01-30T08:29:01;102552.00;;;5.57;100.00
4767;BME280;2397;53.576;9.746;2024-01-30T08:31:28;102547.50;;;5.61;100.00
4767;BME280;2397;53.576;9.746;2024-01-30T08:33:55;102540.25;;;5.66;100.00
4767;BME280;2397;53.576;9.746;2024-01-30T08:36:22;102534.22;;;5.64;100.00
4767;BME280;2397;53.576;9.746;2024-01-30T08:38:49;102532.09;;;5.72;100.00
4767;BME280;2397;53.576;9.746;2024-01-30T08:41:16;102522.38;;;5.74;100.00
4767;BME280;2397;53.576;9.746;2024-01-30T08:43:43;102517.91;;;5.76;100.00
4767;BME280;2397;53.576;9.746;2024-01-30T08:46:11;102515.97;;;5.79;100.00
4767;BME280;2397;53.576;9.746;2024-01-30T08:48:37;102505.97;;;5.87;100.00
4767;BME280;2397;53.576;9.746;2024-01-30T08:51:04;102498.81;;;5.91;100.00
4767;BME280;2397;53.576;9.746;2024-01-30T08:53:35;102495.94;;;5.95;100.00
4767;BME280;2397;53.576;9.746;2024-01-30T08:56:03;102506.97;;;6.02;100.00
4767;BME280;2397;53.576;9.746;2024-01-30T08:58:30;102510.78;;;6.12;100.00
4767;BME280;2397;53.576;9.746;2024-01-30T09:00:58;102511.28;;;6.20;100.00
4767;BME280;2397;53.576;9.746;2024-01-30T09:03:26;102521.25;;;6.29;100.00
4767;BME280;2397;53.576;9.746;2024-01-30T09:05:54;102515.72;;;6.35;100.00
4767;BME280;2397;53.576;9.746;2024-01-30T09:08:21;102525.25;;;6.36;100.00
4767;BME280;2397;53.576;9.746;2024-01-30T09:10:47;102529.41;;;6.40;100.00
4767;BME280;2397;53.576;9.746;2024-01-30T09:13:16;102530.72;;;6.48;100.00
4767;BME280;2397;53.576;9.746;2024-01-30T09:15:42;102541.94;;;6.50;100.00
4767;BME280;2397;53.576;9.746;2024-01-30T09:18:09;102552.03;;;6.58;100.00
4767;BME280;2397;53.576;9.746;2024-01-30T09:20:36;102557.81;;;6.64;100.00
4767;BME280;2397;53.576;9.746;2024-01-30T09:23:02;102555.19;;;6.64;100.00
4767;BME280;2397;53.576;9.746;2024-01-30T09:25:29;102549.63;;;6.70;100.00
4767;BME280;2397;53.576;9.746;2024-01-30T09:27:56;102550.13;;;6.77;100.00
4767;BME280;2397;53.576;9.746;2024-01-30T09:30:23;102555.97;;;6.82;100.00
4767;BME280;2397;53.576;9.746;2024-01-30T09:32:50;102554.13;;;6.84;100.00
4767;BME280;2397;53.576;9.746;2024-01-30T09:35:16;102549.63;;;6.86;100.00
4767;BME280;2397;53.576;9.746;2024-01-30T09:37:43;102539.50;;;6.95;100.00
4767;BME280;2397;53.576;9.746;2024-01-30T09:40:10;102545.06;;;7.05;100.00
4767;BME280;2397;53.576;9.746;2024-01-30T09:42:36;102533.31;;;7.12;100.00
4767;BME280;2397;53.576;9.746;2024-01-30T09:45:05;102528.63;;;7.17;100.00
4767;BME280;2397;53.576;9.746;2024-01-30T09:47:40;102523.47;;;7.31;100.00
4767;BME280;2397;53.576;9.746;2024-01-30T09:50:09;102526.50;;;7.39;100.00
4767;BME280;2397;53.576;9.746;2024-01-30T09:52:36;102507.16;;;7.40;100.00
4767;BME280;2397;53.576;9.746;2024-01-30T09:55:05;102506.44;;;7.52;100.00
4767;BME280;2397;53.576;9.746;2024-01-30T09:57:32;102507.69;;;7.61;100.00
4767;BME280;2397;53.576;9.746;2024-01-30T09:59:58;102509.50;;;7.60;100.00
4767;BME280;2397;53.576;9.746;2024-01-30T10:02:25;102504.47;;;7.71;100.00
4767;BME280;2397;53.576;9.746;2024-01-30T10:04:52;102507.09;;;7.71;100.00
4767;BME280;2397;53.576;9.746;2024-01-30T10:07:19;102507.47;;;7.79;100.00
4767;BME280;2397;53.576;9.746;2024-01-30T10:09:47;102514.44;;;7.80;100.00
4767;BME280;2397;53.576;9.746;2024-01-30T10:12:13;102519.25;;;7.88;100.00
4767;BME280;2397;53.576;9.746;2024-01-30T10:14:40;102524.59;;;7.86;100.00
4767;BME280;2397;53.576;9.746;2024-01-30T10:17:11;102510.72;;;7.98;100.00
4767;BME280;2397;53.576;9.746;2024-01-30T10:19:49;102516.25;;;8.08;100.00
4767;BME280;2397;53.576;9.746;2024-01-30T10:22:18;102509.03;;;8.11;100.00
4767;BME280;2397;53.576;9.746;2024-01-30T10:24:44;102511.56;;;8.13;100.00
4767;BME280;2397;53.576;9.746;2024-01-30T10:27:11;102512.06;;;8.19;100.00
4767;BME280;2397;53.576;9.746;2024-01-30T10:29:38;102509.84;;;8.27;100.00
4767;BME280;2397;53.576;9.746;2024-01-30T10:32:05;102495.16;;;8.37;100.00
4767;BME280;2397;53.576;9.746;2024-01-30T10:34:33;102499.88;;;8.46;100.00
4767;BME280;2397;53.576;9.746;2024-01-30T10:39:29;102498.47;;;8.55;100.00
4767;BME280;2397;53.576;9.746;2024-01-30T10:42:03;102495.75;;;8.56;100.00
4767;BME280;2397;53.576;9.746;2024-01-30T10:44:37;102499.69;;;8.63;100.00
4767;BME280;2397;53.576;9.746;2024-01-30T10:47:07;102498.31;;;8.70;100.00
4767;BME280;2397;53.576;9.746;2024-01-30T10:49:36;102496.19;;;8.77;99.88
4767;BME280;2397;53.576;9.746;2024-01-30T10:52:05;102496.47;;;8.72;99.55
4767;BME280;2397;53.576;9.746;2024-01-30T10:54:33;102487.13;;;8.81;100.00
4767;BME280;2397;53.576;9.746;2024-01-30T10:57:01;102480.72;;;8.85;99.99
4767;BME280;2397;53.576;9.746;2024-01-30T10:59:30;102492.84;;;8.87;99.75
4767;BME280;2397;53.576;9.746;2024-01-30T11:01:59;102486.25;;;8.94;99.13
4767;BME280;2397;53.576;9.746;2024-01-30T11:04:26;102487.94;;;8.95;98.60
4767;BME280;2397;53.576;9.746;2024-01-30T11:06:53;102494.88;;;8.96;98.37
4767;BME280;2397;53.576;9.746;2024-01-30T11:09:20;102489.63;;;8.96;97.86
4767;BME280;2397;53.576;9.746;2024-01-30T11:11:59;102493.97;;;8.97;97.86
4767;BME280;2397;53.576;9.746;2024-01-30T11:14:29;102491.34;;;8.97;97.97
4767;BME280;2397;53.576;9.746;2024-01-30T11:16:59;102497.53;;;8.96;97.72
4767;BME280;2397;53.576;9.746;2024-01-30T11:19:26;102487.75;;;8.98;97.63
4767;BME280;2397;53.576;9.746;2024-01-30T11:21:54;102490.56;;;8.95;97.68
4767;BME280;2397;53.576;9.746;2024-01-30T11:24:21;102488.59;;;8.99;97.91
4767;BME280;2397;53.576;9.746;2024-01-30T11:26:57;102486.94;;;9.10;97.63
4767;BME280;2397;53.576;9.746;2024-01-30T11:29:25;102496.28;;;9.02;97.48
4767;BME280;2397;53.576;9.746;2024-01-30T11:31:56;102492.63;;;9.04;97.60
4767;BME280;2397;53.576;9.746;2024-01-30T11:34:23;102488.28;;;9.03;97.43
4767;BME280;2397;53.576;9.746;2024-01-30T11:36:52;102483.88;;;9.04;97.81
4767;BME280;2397;53.576;9.746;2024-01-30T11:39:21;102492.06;;;8.99;97.54
4767;BME280;2397;53.576;9.746;2024-01-30T11:41:50;102491.34;;;8.97;97.90
4767;BME280;2397;53.576;9.746;2024-01-30T11:44:19;102487.56;;;9.01;98.02
4767;BME280;2397;53.576;9.746;2024-01-30T11:46:48;102486.63;;;8.88;98.67
4767;BME280;2397;53.576;9.746;2024-01-30T11:49:15;102468.97;;;8.90;99.25
4767;BME280;2397;53.576;9.746;2024-01-30T11:51:44;102479.69;;;8.87;99.21
4767;BME280;2397;53.576;9.746;2024-01-30T11:54:11;102485.72;;;8.89;99.39
4767;BME280;2397;53.576;9.746;2024-01-30T11:56:38;102487.59;;;8.87;99.41
4767;BME280;2397;53.576;9.746;2024-01-30T11:59:05;102478.00;;;8.86;99.48
4767;BME280;2397;53.576;9.746;2024-01-30T12:01:31;102485.34;;;8.81;100.00
4767;BME280;2397;53.576;9.746;2024-01-30T12:03:59;102482.50;;;8.84;99.92
4767;BME280;2397;53.576;9.746;2024-01-30T12:06:26;102479.88;;;8.84;100.00
4767;BME280;2397;53.576;9.746;2024-01-30T12:09:01;102471.25;;;8.82;100.00
4767;BME280;2397;53.576;9.746;2024-01-30T12:11:30;102466.16;;;8.79;100.00
4767;BME280;2397;53.576;9.746;2024-01-30T12:13:57;102466.91;;;8.81;100.00
4767;BME280;2397;53.576;9.746;2024-01-30T12:16:24;102462.41;;;8.83;100.00
4767;BME280;2397;53.576;9.746;2024-01-30T12:18:59;102464.66;;;8.89;100.00
4767;BME280;2397;53.576;9.746;2024-01-30T12:21:28;102465.72;;;8.99;100.00
4767;BME280;2397;53.576;9.746;2024-01-30T12:23:56;102474.28;;;9.03;100.00
4767;BME280;2397;53.576;9.746;2024-01-30T12:26:24;102468.41;;;9.12;100.00
4767;BME280;2397;53.576;9.746;2024-01-30T12:28:55;102467.38;;;9.14;99.85
4767;BME280;2397;53.576;9.746;2024-01-30T12:31:28;102468.41;;;9.12;99.95
4767;BME280;2397;53.576;9.746;2024-01-30T12:33:55;102468.13;;;9.16;100.00
4767;BME280;2397;53.576;9.746;2024-01-30T12:36:22;102475.69;;;9.08;100.00
4767;BME280;2397;53.576;9.746;2024-01-30T12:38:50;102485.66;;;9.03;100.00
4767;BME280;2397;53.576;9.746;2024-01-30T12:41:16;102480.47;;;9.02;100.00
4767;BME280;2397;53.576;9.746;2024-01-30T12:43:43;102471.19;;;8.96;100.00
4767;BME280;2397;53.576;9.746;2024-01-30T12:46:10;102476.16;;;9.01;100.00
4767;BME280;2397;53.576;9.746;2024-01-30T12:48:36;102473.44;;;9.02;100.00
4767;BME280;2397;53.576;9.746;2024-01-30T12:51:03;102461.03;;;9.04;100.00
4767;BME280;2397;53.576;9.746;2024-01-30T12:53:30;102456.59;;;9.05;100.00
4767;BME280;2397;53.576;9.746;2024-01-30T12:55:57;102461.03;;;9.04;100.00
4767;BME280;2397;53.576;9.746;2024-01-30T12:58:24;102459.88;;;9.08;100.00
4767;BME280;2397;53.576;9.746;2024-01-30T13:00:51;102463.34;;;9.09;100.00
4767;BME280;2397;53.576;9.746;2024-01-30T13:03:18;102455.44;;;9.09;100.00
4767;BME280;2397;53.576;9.746;2024-01-30T13:05:44;102458.38;;;9.04;100.00
4767;BME280;2397;53.576;9.746;2024-01-30T13:08:11;102459.97;;;9.07;100.00
4767;BME280;2397;53.576;9.746;2024-01-30T13:10:37;102472.28;;;9.06;100.00
4767;BME280;2397;53.576;9.746;2024-01-30T13:13:04;102461.75;;;9.06;100.00
4767;BME280;2397;53.576;9.746;2024-01-30T13:15:34;102458.28;;;9.06;100.00